Observation data for Northfield on 03/24/2019      Previous  Date  Next       Current Mesonet Observations  Soil Data  Daily Summary Page  Observations in Plain Language
KNOR 240500Z 02006KT 13/M01 A2995 RMK A01 T01301005  RH  040%=      5-min Rain = 0
KNOR 240505Z 04005KT 13/00 A2995 RMK A01 T01310001  RH  041%=      5-min Rain = 0
KNOR 240510Z 06005KT 13/00 A2995 RMK A01 T01300004  RH  042%=      5-min Rain = 0
KNOR 240515Z 06006KT 13/01 A2995 RMK A01 T01320005  RH  042%=      5-min Rain = 0
KNOR 240520Z 05007KT 13/01 A2995 RMK A01 T01250013  RH  047%=      5-min Rain = 0
KNOR 240525Z 06006KT 12/02 A2995 RMK A01 T01230019  RH  050%=      5-min Rain = 0
KNOR 240530Z 05007KT 12/02 A2995 RMK A01 T01200021  RH  051%=      5-min Rain = 0
KNOR 240535Z 07005KT 12/02 A2995 RMK A01 T01210021  RH  051%=      5-min Rain = 0
KNOR 240540Z 04005KT 12/02 A2995 RMK A01 T01230021  RH  050%=      5-min Rain = 0
KNOR 240545Z 05006KT 13/02 A2995 RMK A01 T01260024  RH  050%=      5-min Rain = 0
KNOR 240550Z 05005KT 12/02 A2995 RMK A01 T01220024  RH  052%=      5-min Rain = 0
KNOR 240555Z 05005KT 12/02 A2995 RMK A01 T01210024  RH  052%=      5-min Rain = 0
KNOR 240600Z 05005KT 12/03 A2995 RMK A01 T01180025  RH  054%=      5-min Rain = 0
KNOR 240605Z 06004KT 12/03 A2995 RMK A01 T01190025  RH  053%=      5-min Rain = 0
KNOR 240610Z 05004KT 12/03 A2995 RMK A01 T01170025  RH  054%=      5-min Rain = 0
KNOR 240615Z 04004KT 11/03 A2995 RMK A01 T01140025  RH  055%=      5-min Rain = 0
KNOR 240620Z 05004KT 11/03 A2995 RMK A01 T01140025  RH  055%=      5-min Rain = 0
KNOR 240625Z 05005KT 11/03 A2994 RMK A01 T01140026  RH  056%=      5-min Rain = 0
KNOR 240630Z 08004KT 11/03 A2995 RMK A01 T01130027  RH  056%=      5-min Rain = 0
KNOR 240635Z 10002KT 12/03 A2995 RMK A01 T01170028  RH  055%=      5-min Rain = 0
KNOR 240640Z 13002KT 11/02 A2994 RMK A01 T01120024  RH  055%=      5-min Rain = 0
KNOR 240645Z 12001KT 11/03 A2994 RMK A01 T01060025  RH  058%=      5-min Rain = 0
KNOR 240650Z 15000KT 11/02 A2995 RMK A01 T01140021  RH  054%=      5-min Rain = 0
KNOR 240655Z 32003KT 11/02 A2995 RMK A01 T01060017  RH  055%=      5-min Rain = 0
KNOR 240700Z 29005KT 09/02 A2995 RMK A01 T00890020  RH  063%=      5-min Rain = 0
KNOR 240705Z 30004KT 09/02 A2995 RMK A01 T00860020  RH  064%=      5-min Rain = 0
KNOR 240710Z 29005KT 09/02 A2995 RMK A01 T00860021  RH  065%=      5-min Rain = 0
KNOR 240715Z 30005KT 09/02 A2995 RMK A01 T00870020  RH  064%=      5-min Rain = 0
KNOR 240720Z 30005KT 08/02 A2995 RMK A01 T00820020  RH  066%=      5-min Rain = 0
KNOR 240725Z 28004KT 08/02 A2995 RMK A01 T00760017  RH  067%=      5-min Rain = 0
KNOR 240730Z 30005KT 09/02 A2995 RMK A01 T00860021  RH  065%=      5-min Rain = 0
KNOR 240735Z 30005KT 09/02 A2995 RMK A01 T00920022  RH  063%=      5-min Rain = 0
KNOR 240740Z 28004KT 09/02 A2995 RMK A01 T00930022  RH  062%=      5-min Rain = 0
KNOR 240745Z 28004KT 09/02 A2995 RMK A01 T00900020  RH  062%=      5-min Rain = 0
KNOR 240750Z 26004KT 09/01 A2995 RMK A01 T00850013  RH  062%=      5-min Rain = 0
KNOR 240755Z 27003KT 08/01 A2995 RMK A01 T00810014  RH  063%=      5-min Rain = 0
KNOR 240800Z 29004KT 09/02 A2995 RMK A01 T00880017  RH  062%=      5-min Rain = 0
KNOR 240805Z 29004KT 10/01 A2995 RMK A01 T01010013  RH  055%=      5-min Rain = 0
KNOR 240810Z 30005KT 11/01 A2995 RMK A01 T01060005  RH  050%=      5-min Rain = 0
KNOR 240815Z 29004KT 10/M00 A2995 RMK A01 T01041001  RH  049%=      5-min Rain = 0
KNOR 240820Z 28006KT 10/M00 A2995 RMK A01 T01011004  RH  049%=      5-min Rain = 0
KNOR 240825Z 30007KT 10/M01 A2995 RMK A01 T00971005  RH  050%=      5-min Rain = 0
KNOR 240830Z 30008KT 09/M01 A2995 RMK A01 T00921007  RH  051%=      5-min Rain = 0
KNOR 240835Z 29007KT 10/M01 A2995 RMK A01 T00961013  RH  047%=      5-min Rain = 0
KNOR 240840Z 28007KT 09/M02 A2995 RMK A01 T00931015  RH  047%=      5-min Rain = 0
KNOR 240845Z 28007KT 09/M02 A2995 RMK A01 T00901016  RH  048%=      5-min Rain = 0
KNOR 240850Z 28006KT 09/M02 A2995 RMK A01 T00901018  RH  047%=      5-min Rain = 0
KNOR 240855Z 28005KT 09/M02 A2995 RMK A01 T00921022  RH  045%=      5-min Rain = 0
KNOR 240900Z 27005KT 10/M02 A2995 RMK A01 T00951024  RH  044%=      5-min Rain = 0
KNOR 240905Z 26005KT 10/M03 A2995 RMK A01 T00971025  RH  043%=      5-min Rain = 0
KNOR 240910Z 27006KT 09/M02 A2995 RMK A01 T00921024  RH  044%=      5-min Rain = 0
KNOR 240915Z 27006KT 09/M02 A2995 RMK A01 T00881023  RH  046%=      5-min Rain = 0
KNOR 240920Z 27006KT 09/M02 A2995 RMK A01 T00851023  RH  047%=      5-min Rain = 0
KNOR 240925Z 26008KT 08/M02 A2995 RMK A01 T00831021  RH  048%=      5-min Rain = 0
KNOR 240930Z 26007KT 08/M02 A2995 RMK A01 T00801021  RH  049%=      5-min Rain = 0
KNOR 240935Z 26007KT 08/M02 A2995 RMK A01 T00801023  RH  049%=      5-min Rain = 0
KNOR 240940Z 25008KT 09/M03 A2995 RMK A01 T00861025  RH  046%=      5-min Rain = 0
KNOR 240945Z 24007KT 09/M03 A2995 RMK A01 T00921027  RH  044%=      5-min Rain = 0
KNOR 240950Z 26006KT 08/M03 A2995 RMK A01 T00841026  RH  046%=      5-min Rain = 0
KNOR 240955Z 27006KT 08/M03 A2995 RMK A01 T00821026  RH  047%=      5-min Rain = 0
KNOR 241000Z 28006KT 08/M02 A2995 RMK A01 T00801023  RH  048%=      5-min Rain = 0
KNOR 241005Z 27005KT 08/M02 A2995 RMK A01 T00791023  RH  049%=      5-min Rain = 0
KNOR 241010Z 26006KT 08/M02 A2995 RMK A01 T00831024  RH  047%=      5-min Rain = 0
KNOR 241015Z 26006KT 08/M03 A2995 RMK A01 T00841025  RH  046%=      5-min Rain = 0
KNOR 241020Z 26007KT 09/M03 A2995 RMK A01 T00851026  RH  046%=      5-min Rain = 0
KNOR 241025Z 27007KT 08/M03 A2995 RMK A01 T00831025  RH  047%=      5-min Rain = 0
KNOR 241030Z 27008KT 09/M02 A2995 RMK A01 T00871024  RH  046%=      5-min Rain = 0
KNOR 241035Z 28009KT 09/M02 A2995 RMK A01 T00911023  RH  045%=      5-min Rain = 0
KNOR 241040Z 27009KT 09/M02 A2996 RMK A01 T00901022  RH  046%=      5-min Rain = 0
KNOR 241045Z 27008KT 09/M02 A2996 RMK A01 T00871020  RH  047%=      5-min Rain = 0
KNOR 241050Z 27008KT 09/M02 A2996 RMK A01 T00851020  RH  048%=      5-min Rain = 0
KNOR 241055Z 27007KT 08/M02 A2996 RMK A01 T00811019  RH  050%=      5-min Rain = 0
KNOR 241100Z 28007KT 08/M02 A2996 RMK A01 T00781019  RH  051%=      5-min Rain = 0
KNOR 241105Z 28008KT 08/M02 A2997 RMK A01 T00781019  RH  051%=      5-min Rain = 0
KNOR 241110Z 29008KT 09/M02 A2997 RMK A01 T00851015  RH  050%=      5-min Rain = 0
KNOR 241115Z 30010KT 09/M01 A2997 RMK A01 T00941009  RH  049%=      5-min Rain = 0
KNOR 241120Z 30009KT 09/M01 A2998 RMK A01 T00941007  RH  050%=      5-min Rain = 0
KNOR 241125Z 31008KT 09/M01 A2998 RMK A01 T00911007  RH  051%=      5-min Rain = 0
KNOR 241130Z 31006KT 09/M01 A2998 RMK A01 T00861007  RH  053%=      5-min Rain = 0
KNOR 241135Z 32005KT 08/M01 A2999 RMK A01 T00811007  RH  054%=      5-min Rain = 0
KNOR 241140Z 33006KT 08/M00 A2999 RMK A01 T00831003  RH  055%=      5-min Rain = 0
KNOR 241145Z 33006KT 08/00 A2999 RMK A01 T00820001  RH  057%=      5-min Rain = 0
KNOR 241150Z 31007KT 08/00 A2999 RMK A01 T00790002  RH  059%=      5-min Rain = 0
KNOR 241155Z 31008KT 08/01 A2999 RMK A01 T00790005  RH  060%=      5-min Rain = 0
KNOR 241200Z 32007KT 08/01 A30 RMK A01 T00760005  RH  061%=      5-min Rain = 0
KNOR 241205Z 31008KT 07/01 A30 RMK A01 T00710005  RH  063%=      5-min Rain = 0
KNOR 241210Z 32006KT 07/01 A30 RMK A01 T00690006  RH  065%=      5-min Rain = 0
KNOR 241215Z 32006KT 07/01 A3001 RMK A01 T00680008  RH  066%=      5-min Rain = 0
KNOR 241220Z 32006KT 07/01 A3001 RMK A01 T00680010  RH  067%=      5-min Rain = 0
KNOR 241225Z 32007KT 07/01 A3001 RMK A01 T00700014  RH  068%=      5-min Rain = 0
KNOR 241230Z 33008KT 07/02 A3001 RMK A01 T00700017  RH  070%=      5-min Rain = 0
KNOR 241235Z 33008KT 07/02 A3001 RMK A01 T00700020  RH  071%=      5-min Rain = 0
KNOR 241240Z 33007KT 07/02 A3001 RMK A01 T00730022  RH  072%=      5-min Rain = 0
KNOR 241245Z 34006KT 07/02 A3002 RMK A01 T00730024  RH  072%=      5-min Rain = 0
KNOR 241250Z 33006KT 07/02 A3003 RMK A01 T00710024  RH  073%=      5-min Rain = 0
KNOR 241255Z 32006KT 07/02 A3003 RMK A01 T00700023  RH  073%=      5-min Rain = 0
KNOR 241300Z 32006KT 07/02 A3003 RMK A01 T00680023  RH  074%=      5-min Rain = 0
KNOR 241305Z 32006KT 07/03 A3004 RMK A01 T00700025  RH  074%=      5-min Rain = 0
KNOR 241310Z 31006KT 07/03 A3004 RMK A01 T00710026  RH  074%=      5-min Rain = 0
KNOR 241315Z 30006KT 07/03 A3005 RMK A01 T00740029  RH  075%=      5-min Rain = 0
KNOR 241320Z 31005KT 08/03 A3005 RMK A01 T00780031  RH  074%=      5-min Rain = 0
KNOR 241325Z 31005KT 08/03 A3005 RMK A01 T00800032  RH  073%=      5-min Rain = 0
KNOR 241330Z 30004KT 08/03 A3005 RMK A01 T00820033  RH  073%=      5-min Rain = 0
KNOR 241335Z 31005KT 09/03 A3005 RMK A01 T00850034  RH  072%=      5-min Rain = 0
KNOR 241340Z 31006KT 09/04 A3005 RMK A01 T00870035  RH  072%=      5-min Rain = 0
KNOR 241345Z 31006KT 09/04 A3006 RMK A01 T00890036  RH  071%=      5-min Rain = 0
KNOR 241350Z 31007KT 09/04 A3006 RMK A01 T00920037  RH  070%=      5-min Rain = 0
KNOR 241355Z 31007KT 10/04 A3006 RMK A01 T00950038  RH  069%=      5-min Rain = 0
KNOR 241400Z 32007KT 10/04 A3006 RMK A01 T00970038  RH  068%=      5-min Rain = 0
KNOR 241405Z 32009KT 10/04 A3006 RMK A01 T01000039  RH  067%=      5-min Rain = 0
KNOR 241410Z 33009KT 10/04 A3006 RMK A01 T01020039  RH  066%=      5-min Rain = 0
KNOR 241415Z 32008KT 10/04 A3006 RMK A01 T01040040  RH  066%=      5-min Rain = 0
KNOR 241420Z 33008KT 11/04 A3006 RMK A01 T01070040  RH  065%=      5-min Rain = 0
KNOR 241425Z 34008KT 11/04 A3006 RMK A01 T01100041  RH  064%=      5-min Rain = 0
KNOR 241430Z 34009KT 11/04 A3006 RMK A01 T01120041  RH  063%=      5-min Rain = 0
KNOR 241435Z 34008KT 12/04 A3007 RMK A01 T01150041  RH  062%=      5-min Rain = 0
KNOR 241440Z 35009G14KT 12/04 A3007 RMK A01 T01170040  RH  061%=      5-min Rain = 0
KNOR 241445Z 35010KT 12/04 A3007 RMK A01 T01210041  RH  059%=      5-min Rain = 0
KNOR 241450Z 35009KT 13/04 A3007 RMK A01 T01270040  RH  056%=      5-min Rain = 0
KNOR 241455Z 36011KT 13/04 A3007 RMK A01 T01270038  RH  056%=      5-min Rain = 0
KNOR 241500Z 00011KT 13/04 A3007 RMK A01 T01320039  RH  054%=      5-min Rain = 0
KNOR 241505Z 00010KT 14/04 A3006 RMK A01 T01350039  RH  053%=      5-min Rain = 0
KNOR 241510Z 01012KT 14/04 A3006 RMK A01 T01380039  RH  052%=      5-min Rain = 0
KNOR 241515Z 01011KT 14/04 A3006 RMK A01 T01410038  RH  051%=      5-min Rain = 0
KNOR 241520Z 02009KT 14/04 A3007 RMK A01 T01390038  RH  051%=      5-min Rain = 0
KNOR 241525Z 01010G15KT 14/04 A3007 RMK A01 T01430039  RH  051%=      5-min Rain = 0
KNOR 241530Z 01010KT 14/04 A3008 RMK A01 T01430038  RH  050%=      5-min Rain = 0
KNOR 241535Z 01009KT 15/04 A3008 RMK A01 T01480039  RH  049%=      5-min Rain = 0
KNOR 241540Z 35008KT 15/04 A3009 RMK A01 T01470038  RH  049%=      5-min Rain = 0
KNOR 241545Z 00006KT 15/04 A3009 RMK A01 T01460038  RH  049%=      5-min Rain = 0
KNOR 241550Z 00007KT 15/04 A3009 RMK A01 T01500037  RH  048%=      5-min Rain = 0
KNOR 241555Z 35006KT 15/04 A3009 RMK A01 T01520038  RH  047%=      5-min Rain = 0
KNOR 241600Z 01008KT 15/04 A3009 RMK A01 T01530038  RH  047%=      5-min Rain = 0
KNOR 241605Z 01006KT 15/04 A3009 RMK A01 T01540038  RH  047%=      5-min Rain = 0
KNOR 241610Z 35004G9KT 16/04 A3009 RMK A01 T01550036  RH  046%=      5-min Rain = 0
KNOR 241615Z 00007KT 16/04 A3009 RMK A01 T01600038  RH  045%=      5-min Rain = 0
KNOR 241620Z 01006KT 17/04 A3009 RMK A01 T01650039  RH  044%=      5-min Rain = 0
KNOR 241625Z 36008KT 17/04 A3009 RMK A01 T01670037  RH  043%=      5-min Rain = 0
KNOR 241630Z 36005KT 16/04 A3009 RMK A01 T01610038  RH  044%=      5-min Rain = 0
KNOR 241635Z 34006KT 17/04 A3009 RMK A01 T01670038  RH  043%=      5-min Rain = 0
KNOR 241640Z 01007KT 17/04 A3009 RMK A01 T01660037  RH  043%=      5-min Rain = 0
KNOR 241645Z 35006KT 17/04 A3009 RMK A01 T01690037  RH  042%=      5-min Rain = 0
KNOR 241650Z 34007KT 18/04 A3008 RMK A01 T01770038  RH  040%=      5-min Rain = 0
KNOR 241655Z 01004G10KT 18/04 A3008 RMK A01 T01760036  RH  040%=      5-min Rain = 0
KNOR 241700Z 03005G10KT 18/04 A3008 RMK A01 T01800036  RH  039%=      5-min Rain = 0
KNOR 241705Z 04008KT 18/04 A3008 RMK A01 T01800035  RH  039%=      5-min Rain = 0
KNOR 241710Z 04004G9KT 18/03 A3007 RMK A01 T01820034  RH  038%=      5-min Rain = 0
KNOR 241715Z 03006KT 19/04 A3008 RMK A01 T01870036  RH  037%=      5-min Rain = 0
KNOR 241720Z 00006KT 18/03 A3008 RMK A01 T01790033  RH  039%=      5-min Rain = 0
KNOR 241725Z 02006KT 18/03 A3008 RMK A01 T01770033  RH  039%=      5-min Rain = 0
KNOR 241730Z 03005KT 18/04 A3008 RMK A01 T01810035  RH  038%=      5-min Rain = 0
KNOR 241735Z 04007KT 19/03 A3007 RMK A01 T01850034  RH  037%=      5-min Rain = 0
KNOR 241740Z 03006KT 18/03 A3007 RMK A01 T01800034  RH  038%=      5-min Rain = 0
KNOR 241745Z 01007KT 18/03 A3007 RMK A01 T01810033  RH  038%=      5-min Rain = 0
KNOR 241750Z 04006KT 19/04 A3007 RMK A01 T01860035  RH  037%=      5-min Rain = 0
KNOR 241755Z 04004KT 18/03 A3007 RMK A01 T01830033  RH  037%=      5-min Rain = 0
KNOR 241800Z 07004KT 19/03 A3006 RMK A01 T01850033  RH  037%=      5-min Rain = 0
KNOR 241805Z 04007KT 19/03 A3006 RMK A01 T01910034  RH  036%=      5-min Rain = 0
KNOR 241810Z 03006G13KT 20/03 A3006 RMK A01 T01950033  RH  035%=      5-min Rain = 0
KNOR 241815Z 00005KT 19/03 A3006 RMK A01 T01930033  RH  035%=      5-min Rain = 0
KNOR 241820Z 07005G10KT 19/03 A3006 RMK A01 T01940032  RH  035%=      5-min Rain = 0
KNOR 241825Z 07006KT 20/03 A3006 RMK A01 T01960032  RH  034%=      5-min Rain = 0
KNOR 241830Z 09005KT 19/03 A3006 RMK A01 T01910032  RH  035%=      5-min Rain = 0
KNOR 241835Z 03007KT 20/03 A3006 RMK A01 T01960032  RH  034%=      5-min Rain = 0
KNOR 241840Z 01004KT 19/03 A3006 RMK A01 T01940031  RH  035%=      5-min Rain = 0
KNOR 241845Z 04005KT 20/03 A3005 RMK A01 T01970032  RH  034%=      5-min Rain = 0
KNOR 241850Z 04004KT 20/03 A3005 RMK A01 T02020034  RH  034%=      5-min Rain = 0
KNOR 241855Z 06004KT 20/03 A3005 RMK A01 T01990034  RH  034%=      5-min Rain = 0
KNOR 241900Z 10002KT 20/03 A3006 RMK A01 T01950033  RH  035%=      5-min Rain = 0
KNOR 241905Z 05005KT 20/04 A3006 RMK A01 T01980036  RH  035%=      5-min Rain = 0
KNOR 241910Z 05003KT 20/04 A3006 RMK A01 T01990036  RH  035%=      5-min Rain = 0
KNOR 241915Z 07003KT 20/04 A3006 RMK A01 T02030036  RH  034%=      5-min Rain = 0
KNOR 241920Z 02002KT 21/03 A3006 RMK A01 T02050033  RH  033%=      5-min Rain = 0
KNOR 241925Z 06003G8KT 21/03 A3005 RMK A01 T02130033  RH  031%=      5-min Rain = 0
KNOR 241930Z 05004G9KT 21/03 A3005 RMK A01 T02100033  RH  032%=      5-min Rain = 0
KNOR 241935Z 08006KT 21/03 A3005 RMK A01 T02060034  RH  033%=      5-min Rain = 0
KNOR 241940Z 06004KT 20/03 A3005 RMK A01 T02030033  RH  033%=      5-min Rain = 0
KNOR 241945Z 07004KT 21/04 A3004 RMK A01 T02130035  RH  031%=      5-min Rain = 0
KNOR 241950Z 06004G9KT 21/03 A3004 RMK A01 T02110033  RH  031%=      5-min Rain = 0
KNOR 241955Z 00004KT 21/04 A3004 RMK A01 T02110035  RH  032%=      5-min Rain = 0
KNOR 242000Z 01004KT 22/04 A3004 RMK A01 T02160036  RH  031%=      5-min Rain = 0
KNOR 242005Z 05005KT 22/04 A3003 RMK A01 T02180036  RH  031%=      5-min Rain = 0
KNOR 242010Z 06004KT 21/03 A3003 RMK A01 T02110034  RH  032%=      5-min Rain = 0
KNOR 242015Z 16003KT 21/03 A3003 RMK A01 T02130031  RH  031%=      5-min Rain = 0
KNOR 242020Z 03003KT 22/03 A3003 RMK A01 T02220031  RH  029%=      5-min Rain = 0
KNOR 242025Z 02002KT 22/03 A3003 RMK A01 T02200029  RH  029%=      5-min Rain = 0
KNOR 242030Z 06002KT 22/03 A3003 RMK A01 T02180027  RH  029%=      5-min Rain = 0
KNOR 242035Z 24001KT 22/03 A3003 RMK A01 T02190027  RH  029%=      5-min Rain = 0
KNOR 242040Z 04003KT 22/03 A3003 RMK A01 T02220031  RH  029%=      5-min Rain = 0
KNOR 242045Z 02005KT 22/03 A3003 RMK A01 T02190031  RH  030%=      5-min Rain = 0
KNOR 242050Z 05002KT 22/03 A3003 RMK A01 T02170030  RH  030%=      5-min Rain = 0
KNOR 242055Z 02004KT 22/03 A3003 RMK A01 T02200030  RH  029%=      5-min Rain = 0
KNOR 242100Z 05002KT 23/03 A3003 RMK A01 T02250028  RH  028%=      5-min Rain = 0
KNOR 242105Z 11003KT 23/03 A3003 RMK A01 T02300030  RH  027%=      5-min Rain = 0
KNOR 242110Z 02003KT 23/03 A3002 RMK A01 T02310026  RH  026%=      5-min Rain = 0
KNOR 242115Z 08003KT 23/02 A3002 RMK A01 T02250023  RH  027%=      5-min Rain = 0
KNOR 242120Z 16003KT 23/02 A3002 RMK A01 T02320024  RH  026%=      5-min Rain = 0
KNOR 242125Z 28003KT 23/02 A3002 RMK A01 T02320020  RH  025%=      5-min Rain = 0
KNOR 242130Z 31004KT 23/02 A3002 RMK A01 T02310020  RH  025%=      5-min Rain = 0
KNOR 242135Z 03002KT 23/02 A3002 RMK A01 T02330024  RH  026%=      5-min Rain = 0
KNOR 242140Z 05005G14KT 23/03 A3001 RMK A01 T02330026  RH  026%=      5-min Rain = 0
KNOR 242145Z 03002KT 23/03 A3002 RMK A01 T02320026  RH  026%=      5-min Rain = 0
KNOR 242150Z 10004KT 23/03 A3001 RMK A01 T02310026  RH  026%=      5-min Rain = 0
KNOR 242155Z 09004KT 23/02 A3001 RMK A01 T02300024  RH  026%=      5-min Rain = 0
KNOR 242200Z 10004KT 24/03 A3001 RMK A01 T02350025  RH  026%=      5-min Rain = 0
KNOR 242205Z 06004KT 23/02 A3001 RMK A01 T02310020  RH  025%=      5-min Rain = 0
KNOR 242210Z 07003KT 23/02 A3002 RMK A01 T02280019  RH  026%=      5-min Rain = 0
KNOR 242215Z 09002KT 22/02 A3002 RMK A01 T02230020  RH  027%=      5-min Rain = 0
KNOR 242220Z 05001KT 22/02 A3002 RMK A01 T02240022  RH  027%=      5-min Rain = 0
KNOR 242225Z 06002KT 23/02 A3002 RMK A01 T02310022  RH  026%=      5-min Rain = 0
KNOR 242230Z 05003KT 24/02 A3001 RMK A01 T02370018  RH  024%=      5-min Rain = 0
KNOR 242235Z 01002KT 23/02 A3001 RMK A01 T02330016  RH  024%=      5-min Rain = 0
KNOR 242240Z 34002KT 24/02 A3001 RMK A01 T02370019  RH  024%=      5-min Rain = 0
KNOR 242245Z 34002KT 24/02 A3001 RMK A01 T02370020  RH  024%=      5-min Rain = 0
KNOR 242250Z 36004KT 24/02 A3001 RMK A01 T02380019  RH  024%=      5-min Rain = 0
KNOR 242255Z 00003KT 23/02 A3001 RMK A01 T02330017  RH  025%=      5-min Rain = 0
KNOR 242300Z 33001KT 23/01 A3001 RMK A01 T02320014  RH  024%=      5-min Rain = 0
KNOR 242305Z 25001KT 24/02 A3001 RMK A01 T02360016  RH  024%=      5-min Rain = 0
KNOR 242310Z 05001KT 24/02 A3001 RMK A01 T02380017  RH  024%=      5-min Rain = 0
KNOR 242315Z 04003KT 23/02 A3001 RMK A01 T02340017  RH  024%=      5-min Rain = 0
KNOR 242320Z 09002KT 23/02 A3001 RMK A01 T02330016  RH  024%=      5-min Rain = 0
KNOR 242325Z 09004KT 23/02 A3001 RMK A01 T02340020  RH  025%=      5-min Rain = 0
KNOR 242330Z 10004G9KT 23/03 A3001 RMK A01 T02330025  RH  026%=      5-min Rain = 0
KNOR 242335Z 15006KT 23/03 A3001 RMK A01 T02330026  RH  026%=      5-min Rain = 0
KNOR 242340Z 11004G9KT 23/03 A3001 RMK A01 T02330027  RH  026%=      5-min Rain = 0
KNOR 242345Z 12006KT 23/03 A3001 RMK A01 T02280025  RH  027%=      5-min Rain = 0
KNOR 242350Z 13004KT 23/02 A3001 RMK A01 T02290024  RH  026%=      5-min Rain = 0
KNOR 242355Z 11002KT 23/03 A3001 RMK A01 T02280025  RH  027%=      5-min Rain = 0
KNOR 250000Z 15001KT 23/03 A3001 RMK A01 T02300025  RH  026%=      5-min Rain = 0
KNOR 250005Z 14002KT 23/03 A3002 RMK A01 T02310025  RH  026%=      5-min Rain = 0
KNOR 250010Z 08002KT 23/03 A3002 RMK A01 T02280026  RH  027%=      5-min Rain = 0
KNOR 250015Z 08003KT 22/03 A3002 RMK A01 T02240026  RH  028%=      5-min Rain = 0
KNOR 250020Z 07003KT 22/03 A3002 RMK A01 T02220025  RH  028%=      5-min Rain = 0
KNOR 250025Z 10002KT 22/02 A3002 RMK A01 T02220024  RH  028%=      5-min Rain = 0
KNOR 250030Z 08001KT 22/02 A3002 RMK A01 T02210023  RH  027%=      5-min Rain = 0
KNOR 250035Z 09002KT 22/02 A3002 RMK A01 T02190022  RH  028%=      5-min Rain = 0
KNOR 250040Z 10003KT 22/02 A3002 RMK A01 T02150023  RH  029%=      5-min Rain = 0
KNOR 250045Z 10005KT 21/03 A3002 RMK A01 T02080027  RH  031%=      5-min Rain = 0
KNOR 250050Z 10005KT 20/03 A3002 RMK A01 T02010029  RH  033%=      5-min Rain = 0
KNOR 250055Z 10005KT 20/03 A3003 RMK A01 T01950030  RH  034%=      5-min Rain = 0
KNOR 250100Z 10006KT 19/03 A3003 RMK A01 T01900031  RH  035%=      5-min Rain = 0
KNOR 250105Z 10006KT 19/03 A3002 RMK A01 T01860031  RH  036%=      5-min Rain = 0
KNOR 250110Z 10006KT 18/03 A3002 RMK A01 T01840031  RH  037%=      5-min Rain = 0
KNOR 250115Z 10006KT 18/03 A3002 RMK A01 T01810031  RH  038%=      5-min Rain = 0
KNOR 250120Z 09006KT 18/03 A3002 RMK A01 T01770032  RH  039%=      5-min Rain = 0
KNOR 250125Z 08006KT 17/03 A3003 RMK A01 T01720032  RH  040%=      5-min Rain = 0
KNOR 250130Z 08007KT 17/03 A3003 RMK A01 T01710034  RH  041%=      5-min Rain = 0
KNOR 250135Z 08007KT 17/04 A3003 RMK A01 T01710037  RH  042%=      5-min Rain = 0
KNOR 250140Z 09006KT 17/04 A3003 RMK A01 T01680039  RH  043%=      5-min Rain = 0
KNOR 250145Z 08007KT 17/04 A3003 RMK A01 T01670042  RH  044%=      5-min Rain = 0
KNOR 250150Z 09007KT 17/04 A3004 RMK A01 T01660044  RH  045%=      5-min Rain = 0
KNOR 250155Z 09006KT 16/05 A3004 RMK A01 T01610045  RH  047%=      5-min Rain = 0
KNOR 250200Z 09007KT 16/05 A3004 RMK A01 T01580045  RH  048%=      5-min Rain = 0
KNOR 250205Z 08007KT 16/05 A3004 RMK A01 T01560046  RH  049%=      5-min Rain = 0
KNOR 250210Z 08008KT 16/05 A3004 RMK A01 T01550047  RH  049%=      5-min Rain = 0
KNOR 250215Z 08008KT 16/05 A3004 RMK A01 T01550047  RH  050%=      5-min Rain = 0
KNOR 250220Z 08008KT 16/05 A3005 RMK A01 T01560048  RH  050%=      5-min Rain = 0
KNOR 250225Z 09007KT 16/05 A3005 RMK A01 T01550049  RH  050%=      5-min Rain = 0
KNOR 250230Z 08007KT 15/05 A3005 RMK A01 T01520049  RH  051%=      5-min Rain = 0
KNOR 250235Z 08008KT 15/05 A3005 RMK A01 T01510050  RH  052%=      5-min Rain = 0
KNOR 250240Z 08008KT 15/05 A3006 RMK A01 T01510050  RH  052%=      5-min Rain = 0
KNOR 250245Z 08008KT 15/05 A3006 RMK A01 T01500050  RH  052%=      5-min Rain = 0
KNOR 250250Z 08008KT 15/05 A3006 RMK A01 T01490051  RH  053%=      5-min Rain = 0
KNOR 250255Z 08007KT 15/05 A3006 RMK A01 T01470052  RH  054%=      5-min Rain = 0
KNOR 250300Z 08008KT 15/05 A3006 RMK A01 T01460053  RH  055%=      5-min Rain = 0
KNOR 250305Z 08007KT 14/05 A3006 RMK A01 T01440053  RH  056%=      5-min Rain = 0
KNOR 250310Z 08007KT 14/05 A3006 RMK A01 T01430053  RH  056%=      5-min Rain = 0
KNOR 250315Z 09007KT 14/05 A3006 RMK A01 T01410053  RH  057%=      5-min Rain = 0
KNOR 250320Z 09007KT 14/05 A3007 RMK A01 T01390053  RH  057%=      5-min Rain = 0
KNOR 250325Z 09007KT 14/05 A3007 RMK A01 T01370053  RH  058%=      5-min Rain = 0
KNOR 250330Z 09007KT 14/05 A3007 RMK A01 T01350053  RH  059%=      5-min Rain = 0
KNOR 250335Z 09007KT 13/05 A3007 RMK A01 T01330052  RH  059%=      5-min Rain = 0
KNOR 250340Z 09007KT 13/05 A3007 RMK A01 T01330052  RH  060%=      5-min Rain = 0
KNOR 250345Z 09007KT 13/05 A3007 RMK A01 T01320052  RH  060%=      5-min Rain = 0
KNOR 250350Z 09007KT 13/05 A3007 RMK A01 T01330052  RH  059%=      5-min Rain = 0
KNOR 250355Z 09007KT 13/05 A3007 RMK A01 T01320052  RH  059%=      5-min Rain = 0
KNOR 250400Z 09007KT 13/05 A3007 RMK A01 T01300051  RH  060%=      5-min Rain = 0
KNOR 250405Z 09007KT 13/05 A3007 RMK A01 T01290051  RH  060%=      5-min Rain = 0
KNOR 250410Z 10007KT 13/05 A3007 RMK A01 T01280051  RH  061%=      5-min Rain = 0
KNOR 250415Z 10007KT 13/05 A3008 RMK A01 T01270051  RH  061%=      5-min Rain = 0
KNOR 250420Z 10007KT 13/05 A3008 RMK A01 T01260050  RH  061%=      5-min Rain = 0
KNOR 250425Z 10006KT 13/05 A3008 RMK A01 T01250050  RH  061%=      5-min Rain = 0
KNOR 250430Z 09006KT 12/05 A3008 RMK A01 T01240049  RH  061%=      5-min Rain = 0
KNOR 250435Z 09006KT 13/05 A3008 RMK A01 T01250049  RH  061%=      5-min Rain = 0
KNOR 250440Z 10006KT 12/05 A3008 RMK A01 T01240048  RH  061%=      5-min Rain = 0
KNOR 250445Z 11006KT 12/05 A3008 RMK A01 T01230048  RH  061%=      5-min Rain = 0
KNOR 250450Z 12006KT 12/05 A3009 RMK A01 T01200048  RH  063%=      5-min Rain = 0
KNOR 250455Z 12006KT 12/05 A3009 RMK A01 T01170048  RH  064%=      5-min Rain = 0

Page generated in 0.0161 seconds.